sensor_id;sensor_type;location;lat;lon;timestamp;pressure;altitude;pressure_sealevel;temperature;humidity
11621;BME280;5866;49.094;11.900;2023-11-19T00:00:08;96289.00;;;6.02;100.00
11621;BME280;5866;49.094;11.900;2023-11-19T00:02:41;96274.22;;;6.11;100.00
11621;BME280;5866;49.094;11.900;2023-11-19T00:05:10;96277.72;;;6.21;100.00
11621;BME280;5866;49.094;11.900;2023-11-19T00:07:39;96262.69;;;6.12;100.00
11621;BME280;5866;49.094;11.900;2023-11-19T00:10:08;96272.13;;;6.05;100.00
11621;BME280;5866;49.094;11.900;2023-11-19T00:12:37;96264.25;;;6.14;100.00
11621;BME280;5866;49.094;11.900;2023-11-19T00:15:07;96259.06;;;6.03;100.00
11621;BME280;5866;49.094;11.900;2023-11-19T00:17:38;96251.91;;;6.15;100.00
11621;BME280;5866;49.094;11.900;2023-11-19T00:20:09;96256.38;;;6.24;100.00
11621;BME280;5866;49.094;11.900;2023-11-19T00:22:37;96251.94;;;6.24;100.00
11621;BME280;5866;49.094;11.900;2023-11-19T00:25:15;96248.59;;;6.13;100.00
11621;BME280;5866;49.094;11.900;2023-11-19T00:27:43;96244.03;;;6.24;100.00
11621;BME280;5866;49.094;11.900;2023-11-19T00:30:12;96242.69;;;6.30;100.00
11621;BME280;5866;49.094;11.900;2023-11-19T00:32:41;96223.13;;;6.42;100.00
11621;BME280;5866;49.094;11.900;2023-11-19T00:35:10;96227.28;;;6.35;100.00
11621;BME280;5866;49.094;11.900;2023-11-19T00:37:40;96227.53;;;6.13;100.00
11621;BME280;5866;49.094;11.900;2023-11-19T00:40:10;96219.22;;;6.17;100.00
11621;BME280;5866;49.094;11.900;2023-11-19T00:42:38;96228.78;;;6.18;100.00
11621;BME280;5866;49.094;11.900;2023-11-19T00:45:06;96222.56;;;6.29;100.00
11621;BME280;5866;49.094;11.900;2023-11-19T00:47:37;96211.75;;;6.32;100.00
11621;BME280;5866;49.094;11.900;2023-11-19T00:50:05;96210.81;;;6.43;100.00
11621;BME280;5866;49.094;11.900;2023-11-19T00:52:37;96200.84;;;6.65;100.00
11621;BME280;5866;49.094;11.900;2023-11-19T00:55:06;96205.94;;;6.48;100.00
11621;BME280;5866;49.094;11.900;2023-11-19T00:57:34;96206.50;;;6.32;100.00
11621;BME280;5866;49.094;11.900;2023-11-19T01:00:03;96202.31;;;6.39;100.00
11621;BME280;5866;49.094;11.900;2023-11-19T01:02:37;96196.81;;;6.61;100.00
11621;BME280;5866;49.094;11.900;2023-11-19T01:05:08;96193.47;;;6.59;100.00
11621;BME280;5866;49.094;11.900;2023-11-19T01:07:37;96195.28;;;6.49;100.00
11621;BME280;5866;49.094;11.900;2023-11-19T01:10:06;96192.63;;;6.39;100.00
11621;BME280;5866;49.094;11.900;2023-11-19T01:12:35;96187.38;;;6.49;100.00
11621;BME280;5866;49.094;11.900;2023-11-19T01:15:05;96181.53;;;6.36;100.00
11621;BME280;5866;49.094;11.900;2023-11-19T01:17:32;96190.97;;;6.48;100.00
11621;BME280;5866;49.094;11.900;2023-11-19T01:20:00;96182.94;;;6.40;100.00
11621;BME280;5866;49.094;11.900;2023-11-19T01:22:29;96184.88;;;6.48;100.00
11621;BME280;5866;49.094;11.900;2023-11-19T01:24:59;96177.63;;;6.30;100.00
11621;BME280;5866;49.094;11.900;2023-11-19T01:27:27;96176.53;;;6.33;100.00
11621;BME280;5866;49.094;11.900;2023-11-19T01:29:54;96180.00;;;6.33;100.00
11621;BME280;5866;49.094;11.900;2023-11-19T01:32:22;96181.53;;;6.46;100.00
11621;BME280;5866;49.094;11.900;2023-11-19T01:34:50;96174.03;;;6.31;100.00
11621;BME280;5866;49.094;11.900;2023-11-19T01:37:18;96175.72;;;6.32;100.00
11621;BME280;5866;49.094;11.900;2023-11-19T01:39:46;96162.66;;;6.31;100.00
11621;BME280;5866;49.094;11.900;2023-11-19T01:42:26;96165.44;;;6.20;100.00
11621;BME280;5866;49.094;11.900;2023-11-19T01:44:56;96165.47;;;6.49;100.00
11621;BME280;5866;49.094;11.900;2023-11-19T01:47:25;96166.00;;;6.33;100.00
11621;BME280;5866;49.094;11.900;2023-11-19T01:49:53;96163.50;;;6.60;100.00
11621;BME280;5866;49.094;11.900;2023-11-19T01:52:20;96168.50;;;6.82;100.00
11621;BME280;5866;49.094;11.900;2023-11-19T01:54:48;96168.63;;;6.90;100.00
11621;BME280;5866;49.094;11.900;2023-11-19T01:57:17;96167.50;;;6.83;100.00
11621;BME280;5866;49.094;11.900;2023-11-19T01:59:46;96169.00;;;6.95;100.00
11621;BME280;5866;49.094;11.900;2023-11-19T02:02:13;96163.22;;;6.82;100.00
11621;BME280;5866;49.094;11.900;2023-11-19T02:04:41;96157.13;;;6.82;100.00
11621;BME280;5866;49.094;11.900;2023-11-19T02:07:09;96147.38;;;7.01;100.00
11621;BME280;5866;49.094;11.900;2023-11-19T02:09:37;96144.94;;;6.62;100.00
11621;BME280;5866;49.094;11.900;2023-11-19T02:12:06;96138.28;;;6.29;100.00
11621;BME280;5866;49.094;11.900;2023-11-19T02:14:33;96137.69;;;6.16;100.00
11621;BME280;5866;49.094;11.900;2023-11-19T02:17:02;96143.81;;;6.16;100.00
11621;BME280;5866;49.094;11.900;2023-11-19T02:19:30;96144.13;;;6.32;100.00
11621;BME280;5866;49.094;11.900;2023-11-19T02:21:57;96131.63;;;6.44;100.00
11621;BME280;5866;49.094;11.900;2023-11-19T02:24:29;96123.84;;;6.52;100.00
11621;BME280;5866;49.094;11.900;2023-11-19T02:27:03;96114.31;;;6.51;100.00
11621;BME280;5866;49.094;11.900;2023-11-19T02:29:37;96104.31;;;6.16;100.00
11621;BME280;5866;49.094;11.900;2023-11-19T02:32:05;96099.19;;;6.34;100.00
11621;BME280;5866;49.094;11.900;2023-11-19T02:34:35;96088.25;;;6.38;100.00
11621;BME280;5866;49.094;11.900;2023-11-19T02:37:03;96077.81;;;6.56;100.00
11621;BME280;5866;49.094;11.900;2023-11-19T02:39:31;96078.38;;;6.50;100.00
11621;BME280;5866;49.094;11.900;2023-11-19T02:41:59;96078.13;;;6.34;100.00
11621;BME280;5866;49.094;11.900;2023-11-19T02:44:27;96071.44;;;6.39;100.00
11621;BME280;5866;49.094;11.900;2023-11-19T02:46:58;96076.06;;;6.28;100.00
11621;BME280;5866;49.094;11.900;2023-11-19T02:49:26;96075.34;;;6.26;100.00
11621;BME280;5866;49.094;11.900;2023-11-19T02:51:54;96073.53;;;6.36;100.00
11621;BME280;5866;49.094;11.900;2023-11-19T02:54:22;96078.56;;;6.95;100.00
11621;BME280;5866;49.094;11.900;2023-11-19T02:56:53;96071.06;;;6.90;100.00
11621;BME280;5866;49.094;11.900;2023-11-19T02:59:26;96078.63;;;6.66;100.00
11621;BME280;5866;49.094;11.900;2023-11-19T03:01:54;96076.44;;;6.43;100.00
11621;BME280;5866;49.094;11.900;2023-11-19T03:04:23;96078.09;;;6.53;100.00
11621;BME280;5866;49.094;11.900;2023-11-19T03:06:51;96078.25;;;6.42;100.00
11621;BME280;5866;49.094;11.900;2023-11-19T03:09:19;96074.09;;;6.30;100.00
11621;BME280;5866;49.094;11.900;2023-11-19T03:11:47;96077.56;;;6.40;100.00
11621;BME280;5866;49.094;11.900;2023-11-19T03:14:16;96072.28;;;6.21;100.00
11621;BME280;5866;49.094;11.900;2023-11-19T03:16:45;96065.19;;;6.50;100.00
11621;BME280;5866;49.094;11.900;2023-11-19T03:19:13;96066.44;;;6.46;100.00
11621;BME280;5866;49.094;11.900;2023-11-19T03:21:52;96065.63;;;6.55;100.00
11621;BME280;5866;49.094;11.900;2023-11-19T03:24:20;96058.44;;;6.38;100.00
11621;BME280;5866;49.094;11.900;2023-11-19T03:26:48;96060.22;;;6.47;100.00
11621;BME280;5866;49.094;11.900;2023-11-19T03:29:16;96056.59;;;6.48;100.00
11621;BME280;5866;49.094;11.900;2023-11-19T03:31:44;96060.16;;;6.66;100.00
11621;BME280;5866;49.094;11.900;2023-11-19T03:34:12;96060.31;;;6.74;100.00
11621;BME280;5866;49.094;11.900;2023-11-19T03:36:39;96053.13;;;6.57;100.00
11621;BME280;5866;49.094;11.900;2023-11-19T03:39:08;96047.59;;;6.41;100.00
11621;BME280;5866;49.094;11.900;2023-11-19T03:41:36;96047.97;;;6.56;100.00
11621;BME280;5866;49.094;11.900;2023-11-19T03:44:06;96048.13;;;6.54;100.00
11621;BME280;5866;49.094;11.900;2023-11-19T03:46:34;96042.28;;;6.70;100.00
11621;BME280;5866;49.094;11.900;2023-11-19T03:49:02;96050.84;;;6.81;100.00
11621;BME280;5866;49.094;11.900;2023-11-19T03:51:30;96055.84;;;6.84;100.00
11621;BME280;5866;49.094;11.900;2023-11-19T03:53:58;96063.66;;;6.57;100.00
11621;BME280;5866;49.094;11.900;2023-11-19T03:56:27;96061.09;;;6.84;100.00
11621;BME280;5866;49.094;11.900;2023-11-19T03:58:57;96055.88;;;7.11;100.00
11621;BME280;5866;49.094;11.900;2023-11-19T04:01:24;96052.31;;;7.30;100.00
11621;BME280;5866;49.094;11.900;2023-11-19T04:03:52;96056.47;;;6.96;100.00
11621;BME280;5866;49.094;11.900;2023-11-19T04:06:19;96060.97;;;6.86;100.00
11621;BME280;5866;49.094;11.900;2023-11-19T04:08:47;96064.31;;;7.15;100.00
11621;BME280;5866;49.094;11.900;2023-11-19T04:11:15;96051.28;;;7.13;100.00
11621;BME280;5866;49.094;11.900;2023-11-19T04:13:44;96045.28;;;6.84;100.00
11621;BME280;5866;49.094;11.900;2023-11-19T04:16:12;96042.28;;;6.70;100.00
11621;BME280;5866;49.094;11.900;2023-11-19T04:18:41;96032.50;;;6.89;100.00
11621;BME280;5866;49.094;11.900;2023-11-19T04:21:08;96032.13;;;6.84;100.00
11621;BME280;5866;49.094;11.900;2023-11-19T04:23:37;96036.63;;;6.55;100.00
11621;BME280;5866;49.094;11.900;2023-11-19T04:26:05;96030.09;;;6.50;100.00
11621;BME280;5866;49.094;11.900;2023-11-19T04:28:36;96018.66;;;6.78;100.00
11621;BME280;5866;49.094;11.900;2023-11-19T04:31:05;96014.88;;;6.53;100.00
11621;BME280;5866;49.094;11.900;2023-11-19T04:33:33;96009.06;;;6.40;100.00
11621;BME280;5866;49.094;11.900;2023-11-19T04:36:01;96014.50;;;6.38;100.00
11621;BME280;5866;49.094;11.900;2023-11-19T04:38:29;95987.84;;;6.41;100.00
11621;BME280;5866;49.094;11.900;2023-11-19T04:40:57;95968.56;;;6.41;100.00
11621;BME280;5866;49.094;11.900;2023-11-19T04:43:24;95949.22;;;6.23;100.00
11621;BME280;5866;49.094;11.900;2023-11-19T04:45:52;95940.63;;;6.21;100.00
11621;BME280;5866;49.094;11.900;2023-11-19T04:48:21;95930.13;;;6.11;100.00
11621;BME280;5866;49.094;11.900;2023-11-19T04:50:49;95944.69;;;5.87;100.00
11621;BME280;5866;49.094;11.900;2023-11-19T04:53:17;95953.13;;;5.81;100.00
11621;BME280;5866;49.094;11.900;2023-11-19T04:55:45;95964.09;;;6.05;100.00
11621;BME280;5866;49.094;11.900;2023-11-19T04:58:12;95964.22;;;6.13;100.00
11621;BME280;5866;49.094;11.900;2023-11-19T05:00:40;95957.28;;;6.02;100.00
11621;BME280;5866;49.094;11.900;2023-11-19T05:03:07;95954.25;;;6.07;100.00
11621;BME280;5866;49.094;11.900;2023-11-19T05:05:37;95955.31;;;6.14;100.00
11621;BME280;5866;49.094;11.900;2023-11-19T05:08:04;95968.34;;;6.25;100.00
11621;BME280;5866;49.094;11.900;2023-11-19T05:10:32;95981.13;;;6.20;100.00
11621;BME280;5866;49.094;11.900;2023-11-19T05:13:00;95990.53;;;6.13;100.00
11621;BME280;5866;49.094;11.900;2023-11-19T05:15:27;95989.88;;;5.92;100.00
11621;BME280;5866;49.094;11.900;2023-11-19T05:17:55;95990.13;;;6.08;100.00
11621;BME280;5866;49.094;11.900;2023-11-19T05:20:23;96017.94;;;6.39;100.00
11621;BME280;5866;49.094;11.900;2023-11-19T05:22:51;96010.22;;;6.09;100.00
11621;BME280;5866;49.094;11.900;2023-11-19T05:25:19;96000.25;;;6.22;100.00
11621;BME280;5866;49.094;11.900;2023-11-19T05:27:47;96011.84;;;6.38;100.00
11621;BME280;5866;49.094;11.900;2023-11-19T05:30:15;96008.81;;;6.24;100.00
11621;BME280;5866;49.094;11.900;2023-11-19T05:32:42;96010.66;;;6.60;100.00
11621;BME280;5866;49.094;11.900;2023-11-19T05:35:10;96007.63;;;7.01;100.00
11621;BME280;5866;49.094;11.900;2023-11-19T05:37:38;96001.94;;;6.96;100.00
11621;BME280;5866;49.094;11.900;2023-11-19T05:40:08;96011.13;;;6.92;100.00
11621;BME280;5866;49.094;11.900;2023-11-19T05:42:42;96000.00;;;7.26;100.00
11621;BME280;5866;49.094;11.900;2023-11-19T05:45:11;96001.00;;;6.88;100.00
11621;BME280;5866;49.094;11.900;2023-11-19T05:47:39;95989.78;;;6.86;100.00
11621;BME280;5866;49.094;11.900;2023-11-19T05:50:07;95981.38;;;6.73;100.00
11621;BME280;5866;49.094;11.900;2023-11-19T05:52:36;95983.50;;;6.96;100.00
11621;BME280;5866;49.094;11.900;2023-11-19T05:55:04;95984.69;;;7.02;100.00
11621;BME280;5866;49.094;11.900;2023-11-19T05:57:37;95971.41;;;7.21;100.00
11621;BME280;5866;49.094;11.900;2023-11-19T06:00:08;95955.47;;;7.22;100.00
11621;BME280;5866;49.094;11.900;2023-11-19T06:02:39;95965.78;;;7.16;100.00
11621;BME280;5866;49.094;11.900;2023-11-19T06:05:07;95964.50;;;7.38;100.00
11621;BME280;5866;49.094;11.900;2023-11-19T06:07:36;95959.31;;;7.46;100.00
11621;BME280;5866;49.094;11.900;2023-11-19T06:10:06;95969.50;;;7.41;100.00
11621;BME280;5866;49.094;11.900;2023-11-19T06:12:37;95965.13;;;7.67;100.00
11621;BME280;5866;49.094;11.900;2023-11-19T06:15:08;95960.53;;;7.51;100.00
11621;BME280;5866;49.094;11.900;2023-11-19T06:17:36;95964.47;;;7.65;100.00
11621;BME280;5866;49.094;11.900;2023-11-19T06:20:05;95966.72;;;7.42;100.00
11621;BME280;5866;49.094;11.900;2023-11-19T06:22:34;95957.09;;;7.68;100.00
11621;BME280;5866;49.094;11.900;2023-11-19T06:25:02;95955.16;;;7.96;100.00
11621;BME280;5866;49.094;11.900;2023-11-19T06:27:34;95952.00;;;8.10;100.00
11621;BME280;5866;49.094;11.900;2023-11-19T06:30:03;95953.13;;;8.08;100.00
11621;BME280;5866;49.094;11.900;2023-11-19T06:32:32;95963.97;;;8.22;100.00
11621;BME280;5866;49.094;11.900;2023-11-19T06:34:59;95959.19;;;8.43;100.00
11621;BME280;5866;49.094;11.900;2023-11-19T06:37:27;95956.97;;;8.13;100.00
11621;BME280;5866;49.094;11.900;2023-11-19T06:39:55;95956.25;;;7.68;100.00
11621;BME280;5866;49.094;11.900;2023-11-19T06:42:22;95945.84;;;7.49;100.00
11621;BME280;5866;49.094;11.900;2023-11-19T06:44:50;95942.75;;;7.08;100.00
11621;BME280;5866;49.094;11.900;2023-11-19T06:47:19;95940.13;;;6.81;100.00
11621;BME280;5866;49.094;11.900;2023-11-19T06:49:47;95940.34;;;6.70;100.00
11621;BME280;5866;49.094;11.900;2023-11-19T06:52:16;95938.75;;;6.77;100.00
11621;BME280;5866;49.094;11.900;2023-11-19T06:54:43;95942.63;;;6.83;100.00
11621;BME280;5866;49.094;11.900;2023-11-19T06:57:12;95953.31;;;7.08;100.00
11621;BME280;5866;49.094;11.900;2023-11-19T06:59:40;95953.78;;;7.21;100.00
11621;BME280;5866;49.094;11.900;2023-11-19T07:02:08;95949.75;;;7.45;100.00
11621;BME280;5866;49.094;11.900;2023-11-19T07:04:37;95953.06;;;7.47;100.00
11621;BME280;5866;49.094;11.900;2023-11-19T07:07:05;95950.03;;;7.42;100.00
11621;BME280;5866;49.094;11.900;2023-11-19T07:09:32;95959.41;;;7.54;100.00
11621;BME280;5866;49.094;11.900;2023-11-19T07:12:00;95961.22;;;7.71;100.00
11621;BME280;5866;49.094;11.900;2023-11-19T07:14:31;95963.03;;;7.88;100.00
11621;BME280;5866;49.094;11.900;2023-11-19T07:16:59;95970.88;;;7.80;100.00
11621;BME280;5866;49.094;11.900;2023-11-19T07:19:27;95975.47;;;7.95;100.00
11621;BME280;5866;49.094;11.900;2023-11-19T07:21:56;95977.06;;;8.06;100.00
11621;BME280;5866;49.094;11.900;2023-11-19T07:24:23;95967.19;;;7.73;100.00
11621;BME280;5866;49.094;11.900;2023-11-19T07:26:51;95979.78;;;7.79;100.00
11621;BME280;5866;49.094;11.900;2023-11-19T07:29:19;95975.03;;;8.00;100.00
11621;BME280;5866;49.094;11.900;2023-11-19T07:31:51;95974.19;;;7.82;100.00
11621;BME280;5866;49.094;11.900;2023-11-19T07:34:18;95969.88;;;7.98;100.00
11621;BME280;5866;49.094;11.900;2023-11-19T07:36:47;95969.66;;;7.92;100.00
11621;BME280;5866;49.094;11.900;2023-11-19T07:39:16;95970.09;;;8.05;100.00
11621;BME280;5866;49.094;11.900;2023-11-19T07:41:44;95975.44;;;8.13;100.00
11621;BME280;5866;49.094;11.900;2023-11-19T07:44:11;95979.28;;;8.36;100.00
11621;BME280;5866;49.094;11.900;2023-11-19T07:46:39;95974.53;;;8.40;100.00
11621;BME280;5866;49.094;11.900;2023-11-19T07:49:08;95979.09;;;8.55;100.00
11621;BME280;5866;49.094;11.900;2023-11-19T07:51:36;95975.81;;;8.61;100.00
11621;BME280;5866;49.094;11.900;2023-11-19T07:54:04;95960.97;;;8.94;100.00
11621;BME280;5866;49.094;11.900;2023-11-19T07:56:33;95969.53;;;8.88;100.00
11621;BME280;5866;49.094;11.900;2023-11-19T07:59:01;95962.09;;;8.84;100.00
11621;BME280;5866;49.094;11.900;2023-11-19T08:01:29;95963.84;;;8.75;100.00
11621;BME280;5866;49.094;11.900;2023-11-19T08:03:57;95962.94;;;8.58;100.00
11621;BME280;5866;49.094;11.900;2023-11-19T08:06:26;95971.72;;;8.24;100.00
11621;BME280;5866;49.094;11.900;2023-11-19T08:08:54;95973.72;;;8.39;100.00
11621;BME280;5866;49.094;11.900;2023-11-19T08:11:21;95972.03;;;8.64;100.00
11621;BME280;5866;49.094;11.900;2023-11-19T08:13:50;95963.50;;;9.04;100.00
11621;BME280;5866;49.094;11.900;2023-11-19T08:16:18;95972.97;;;8.80;100.00
11621;BME280;5866;49.094;11.900;2023-11-19T08:18:46;95974.28;;;8.51;100.00
11621;BME280;5866;49.094;11.900;2023-11-19T08:21:13;95963.31;;;8.71;100.00
11621;BME280;5866;49.094;11.900;2023-11-19T08:23:41;95957.13;;;8.12;100.00
11621;BME280;5866;49.094;11.900;2023-11-19T08:26:09;95964.88;;;8.13;100.00
11621;BME280;5866;49.094;11.900;2023-11-19T08:28:37;95971.50;;;8.17;100.00
11621;BME280;5866;49.094;11.900;2023-11-19T08:31:06;95974.78;;;8.29;100.00
11621;BME280;5866;49.094;11.900;2023-11-19T08:33:33;95971.06;;;8.39;100.00
11621;BME280;5866;49.094;11.900;2023-11-19T08:36:02;95963.56;;;8.52;100.00
11621;BME280;5866;49.094;11.900;2023-11-19T08:38:30;95969.41;;;8.38;100.00
11621;BME280;5866;49.094;11.900;2023-11-19T08:40:58;95969.25;;;8.22;100.00
11621;BME280;5866;49.094;11.900;2023-11-19T08:43:26;95968.88;;;8.17;100.00
11621;BME280;5866;49.094;11.900;2023-11-19T08:45:54;95962.19;;;8.05;100.00
11621;BME280;5866;49.094;11.900;2023-11-19T08:48:23;95963.41;;;7.93;100.00
11621;BME280;5866;49.094;11.900;2023-11-19T08:50:52;95961.72;;;8.10;100.00
11621;BME280;5866;49.094;11.900;2023-11-19T08:53:19;95969.34;;;8.30;100.00
11621;BME280;5866;49.094;11.900;2023-11-19T08:55:47;95965.41;;;8.34;100.00
11621;BME280;5866;49.094;11.900;2023-11-19T08:58:16;95959.50;;;8.40;100.00
11621;BME280;5866;49.094;11.900;2023-11-19T09:00:44;95968.03;;;8.34;100.00
11621;BME280;5866;49.094;11.900;2023-11-19T09:03:12;95973.19;;;8.61;100.00
11621;BME280;5866;49.094;11.900;2023-11-19T09:05:41;95966.34;;;8.76;100.00
11621;BME280;5866;49.094;11.900;2023-11-19T09:08:09;95955.81;;;8.93;100.00
11621;BME280;5866;49.094;11.900;2023-11-19T09:10:37;95951.25;;;9.03;100.00
11621;BME280;5866;49.094;11.900;2023-11-19T09:13:05;95945.34;;;9.09;100.00
11621;BME280;5866;49.094;11.900;2023-11-19T09:15:33;95947.19;;;9.24;100.00
11621;BME280;5866;49.094;11.900;2023-11-19T09:18:00;95957.59;;;9.26;100.00
11621;BME280;5866;49.094;11.900;2023-11-19T09:20:28;95959.41;;;9.17;100.00
11621;BME280;5866;49.094;11.900;2023-11-19T09:23:00;95962.50;;;9.46;100.00
11621;BME280;5866;49.094;11.900;2023-11-19T09:25:27;95966.59;;;9.49;100.00
11621;BME280;5866;49.094;11.900;2023-11-19T09:28:11;95954.75;;;9.69;100.00
11621;BME280;5866;49.094;11.900;2023-11-19T09:30:39;95964.38;;;9.86;100.00
11621;BME280;5866;49.094;11.900;2023-11-19T09:33:07;95958.47;;;10.32;100.00
11621;BME280;5866;49.094;11.900;2023-11-19T09:35:35;95957.28;;;10.51;100.00
11621;BME280;5866;49.094;11.900;2023-11-19T09:38:04;95955.72;;;10.73;100.00
11621;BME280;5866;49.094;11.900;2023-11-19T09:40:32;95954.41;;;10.85;100.00
11621;BME280;5866;49.094;11.900;2023-11-19T09:42:59;95959.31;;;10.96;100.00
11621;BME280;5866;49.094;11.900;2023-11-19T09:45:27;95948.66;;;11.04;100.00
11621;BME280;5866;49.094;11.900;2023-11-19T09:47:57;95954.19;;;11.33;100.00
11621;BME280;5866;49.094;11.900;2023-11-19T09:50:25;95950.25;;;11.60;100.00
11621;BME280;5866;49.094;11.900;2023-11-19T09:52:52;95954.06;;;11.88;100.00
11621;BME280;5866;49.094;11.900;2023-11-19T09:55:21;95956.38;;;11.91;100.00
11621;BME280;5866;49.094;11.900;2023-11-19T09:57:50;95951.94;;;11.83;100.00
11621;BME280;5866;49.094;11.900;2023-11-19T10:00:20;95950.50;;;12.04;100.00
11621;BME280;5866;49.094;11.900;2023-11-19T10:02:49;95958.63;;;12.25;100.00
11621;BME280;5866;49.094;11.900;2023-11-19T10:05:19;95956.84;;;12.40;100.00
11621;BME280;5866;49.094;11.900;2023-11-19T10:07:47;95950.72;;;12.54;100.00
11621;BME280;5866;49.094;11.900;2023-11-19T10:10:16;95945.41;;;12.54;100.00
11621;BME280;5866;49.094;11.900;2023-11-19T10:12:46;95937.44;;;12.17;100.00
11621;BME280;5866;49.094;11.900;2023-11-19T10:15:21;95938.41;;;12.53;100.00
11621;BME280;5866;49.094;11.900;2023-11-19T10:17:50;95944.16;;;12.79;100.00
11621;BME280;5866;49.094;11.900;2023-11-19T10:20:18;95939.19;;;13.34;100.00
11621;BME280;5866;49.094;11.900;2023-11-19T10:22:46;95934.19;;;13.61;100.00
11621;BME280;5866;49.094;11.900;2023-11-19T10:25:24;95923.81;;;13.66;100.00
11621;BME280;5866;49.094;11.900;2023-11-19T10:27:54;95923.78;;;13.44;100.00
11621;BME280;5866;49.094;11.900;2023-11-19T10:30:23;95923.06;;;13.72;100.00
11621;BME280;5866;49.094;11.900;2023-11-19T10:33:06;95922.97;;;13.29;100.00
11621;BME280;5866;49.094;11.900;2023-11-19T10:35:35;95936.78;;;12.52;100.00
11621;BME280;5866;49.094;11.900;2023-11-19T10:38:13;95942.69;;;12.25;100.00
11621;BME280;5866;49.094;11.900;2023-11-19T10:40:41;95939.53;;;12.44;100.00
11621;BME280;5866;49.094;11.900;2023-11-19T10:43:10;95936.13;;;12.13;100.00
11621;BME280;5866;49.094;11.900;2023-11-19T10:45:38;95926.91;;;12.01;100.00
11621;BME280;5866;49.094;11.900;2023-11-19T10:48:06;95945.97;;;11.81;100.00
11621;BME280;5866;49.094;11.900;2023-11-19T10:50:35;95944.06;;;11.37;100.00
11621;BME280;5866;49.094;11.900;2023-11-19T10:53:04;95939.50;;;11.53;100.00
11621;BME280;5866;49.094;11.900;2023-11-19T10:55:33;95941.22;;;11.77;100.00
11621;BME280;5866;49.094;11.900;2023-11-19T10:58:02;95933.13;;;11.32;100.00
11621;BME280;5866;49.094;11.900;2023-11-19T11:00:38;95927.31;;;10.97;100.00
11621;BME280;5866;49.094;11.900;2023-11-19T11:03:11;95942.63;;;11.26;100.00
11621;BME280;5866;49.094;11.900;2023-11-19T11:05:39;95938.72;;;11.75;100.00
11621;BME280;5866;49.094;11.900;2023-11-19T11:08:08;95939.50;;;11.53;100.00
11621;BME280;5866;49.094;11.900;2023-11-19T11:10:40;95936.34;;;11.19;100.00
11621;BME280;5866;49.094;11.900;2023-11-19T11:13:13;95932.28;;;11.39;100.00
11621;BME280;5866;49.094;11.900;2023-11-19T11:15:43;95929.34;;;12.10;100.00
11621;BME280;5866;49.094;11.900;2023-11-19T11:18:13;95935.72;;;12.01;100.00
11621;BME280;5866;49.094;11.900;2023-11-19T11:20:41;95935.63;;;12.32;100.00
11621;BME280;5866;49.094;11.900;2023-11-19T11:26:42;95920.53;;;12.47;100.00
11621;BME280;5866;49.094;11.900;2023-11-19T11:29:17;95913.44;;;12.25;100.00
11621;BME280;5866;49.094;11.900;2023-11-19T11:32:01;95907.38;;;12.31;100.00
11621;BME280;5866;49.094;11.900;2023-11-19T11:34:55;95903.28;;;12.57;100.00
11621;BME280;5866;49.094;11.900;2023-11-19T11:37:32;95902.41;;;13.23;100.00
11621;BME280;5866;49.094;11.900;2023-11-19T11:40:01;95900.84;;;13.86;100.00
11621;BME280;5866;49.094;11.900;2023-11-19T11:42:35;95899.44;;;13.69;100.00
11621;BME280;5866;49.094;11.900;2023-11-19T11:45:05;95896.06;;;13.81;100.00
11621;BME280;5866;49.094;11.900;2023-11-19T11:48:05;95900.31;;;13.54;100.00
11621;BME280;5866;49.094;11.900;2023-11-19T11:50:36;95895.06;;;13.82;100.00
11621;BME280;5866;49.094;11.900;2023-11-19T11:53:16;95907.56;;;13.61;100.00
11621;BME280;5866;49.094;11.900;2023-11-19T11:56:00;95904.31;;;13.29;100.00
11621;BME280;5866;49.094;11.900;2023-11-19T11:58:35;95899.28;;;13.55;100.00
11621;BME280;5866;49.094;11.900;2023-11-19T12:01:04;95890.72;;;13.24;100.00
11621;BME280;5866;49.094;11.900;2023-11-19T12:03:37;95889.97;;;13.30;100.00
11621;BME280;5866;49.094;11.900;2023-11-19T12:06:05;95886.13;;;13.04;100.00
11621;BME280;5866;49.094;11.900;2023-11-19T12:08:35;95887.41;;;13.22;100.00
11621;BME280;5866;49.094;11.900;2023-11-19T12:11:19;95889.88;;;13.24;100.00
11621;BME280;5866;49.094;11.900;2023-11-19T12:13:53;95881.22;;;13.15;100.00
11621;BME280;5866;49.094;11.900;2023-11-19T12:16:25;95881.88;;;13.38;100.00
11621;BME280;5866;49.094;11.900;2023-11-19T12:18:56;95880.16;;;13.88;100.00
11621;BME280;5866;49.094;11.900;2023-11-19T12:21:30;95865.06;;;13.95;100.00
11621;BME280;5866;49.094;11.900;2023-11-19T12:23:59;95865.00;;;14.16;100.00
11621;BME280;5866;49.094;11.900;2023-11-19T12:26:35;95855.06;;;14.52;100.00
11621;BME280;5866;49.094;11.900;2023-11-19T12:29:03;95859.28;;;14.68;100.00
11621;BME280;5866;49.094;11.900;2023-11-19T12:31:35;95847.91;;;14.93;100.00
11621;BME280;5866;49.094;11.900;2023-11-19T12:34:08;95842.81;;;14.09;100.00
11621;BME280;5866;49.094;11.900;2023-11-19T12:36:39;95848.63;;;14.19;100.00
11621;BME280;5866;49.094;11.900;2023-11-19T12:39:09;95846.66;;;14.27;100.00
11621;BME280;5866;49.094;11.900;2023-11-19T12:41:52;95846.22;;;14.24;100.00
11621;BME280;5866;49.094;11.900;2023-11-19T12:44:21;95849.00;;;14.37;100.00
11621;BME280;5866;49.094;11.900;2023-11-19T12:47:02;95837.22;;;14.87;100.00
11621;BME280;5866;49.094;11.900;2023-11-19T12:49:31;95835.81;;;15.45;100.00
11621;BME280;5866;49.094;11.900;2023-11-19T12:51:59;95823.22;;;14.85;100.00
11621;BME280;5866;49.094;11.900;2023-11-19T12:54:34;95807.28;;;15.04;100.00
11621;BME280;5866;49.094;11.900;2023-11-19T12:57:02;95828.75;;;14.83;100.00
11621;BME280;5866;49.094;11.900;2023-11-19T12:59:31;95817.84;;;14.78;100.00
11621;BME280;5866;49.094;11.900;2023-11-19T13:01:59;95804.69;;;14.15;100.00
11621;BME280;5866;49.094;11.900;2023-11-19T13:04:28;95812.84;;;14.07;100.00
11621;BME280;5866;49.094;11.900;2023-11-19T13:06:58;95811.78;;;14.29;100.00
11621;BME280;5866;49.094;11.900;2023-11-19T13:09:29;95807.34;;;14.36;100.00
11621;BME280;5866;49.094;11.900;2023-11-19T13:11:57;95805.69;;;14.07;100.00